Time;durP1;ratioP1;P1;durP2;ratioP2;P2;SDS_P1;SDS_P2;PMS_P1;PMS_P2;Temp;Humidity;BMP_temperature;BMP_pressure;BME280_temperature;BME280_humidity;BME280_pressure;Samples;Min_cycle;Max_cycle;Signal;HPM_P1;HPM_P2
2022/08/09 00:00:59;;;;;;;2.78;2.67;;;21.70;99.90;;;22.22;65.87;102693.97;5054042;28;20049;-61
2022/08/09 00:03:29;;;;;;;2.42;2.33;;;21.80;99.90;;;22.14;65.99;102697.78;5053991;28;20033;-59
2022/08/09 00:06:18;;;;;;;2.28;2.17;;;21.80;99.90;;;22.06;66.47;102692.56;5053985;28;20155;-59
2022/08/09 00:08:50;;;;;;;2.55;2.45;;;21.70;99.90;;;22.06;66.61;102697.97;5054260;28;20045;-60
2022/08/09 00:11:24;;;;;;;2.50;2.40;;;21.70;99.90;;;22.04;66.63;102694.41;5054167;28;20135;-59
2022/08/09 00:14:14;;;;;;;2.25;2.15;;;21.60;99.90;;;22.04;66.64;102683.63;5053852;28;20048;-59
2022/08/09 00:16:56;;;;;;;2.38;2.28;;;21.60;99.90;;;21.57;66.84;102613.69;5054005;28;20073;-60
2022/08/09 00:19:28;;;;;;;2.40;2.30;;;21.60;99.90;;;21.94;66.85;102687.44;5053747;28;20072;-59
2022/08/09 00:21:56;;;;;;;2.28;2.17;;;21.60;99.90;;;21.93;67.01;102685.66;5053613;28;20095;-60
2022/08/09 00:24:25;;;;;;;2.40;2.30;;;21.50;99.90;;;21.91;67.13;102692.88;5053635;28;20099;-59
2022/08/09 00:26:55;;;;;;;2.40;2.30;;;21.50;99.90;;;21.76;67.02;102657.25;5053633;28;20064;-60
2022/08/09 00:29:27;;;;;;;2.60;2.50;;;21.50;99.90;;;21.97;66.98;102683.81;5053881;28;20068;-60
2022/08/09 00:32:16;;;;;;;2.40;2.30;;;21.50;99.90;;;21.91;67.24;102681.25;5053768;28;20055;-59
2022/08/09 00:34:56;;;;;;;2.53;2.42;;;21.50;99.90;;;21.85;67.26;102684.06;5053410;28;20053;-60
2022/08/09 00:37:26;;;;;;;2.38;2.28;;;21.50;99.90;;;21.90;67.41;102679.44;5053431;28;20131;-59
2022/08/09 00:40:01;;;;;;;2.80;2.70;;;21.50;99.90;;;21.81;67.34;102659.00;5053629;28;20514;-59
2022/08/09 00:42:43;;;;;;;2.28;2.17;;;21.50;99.90;;;21.92;67.38;102691.97;5053303;28;20045;-59
2022/08/09 00:45:34;;;;;;;2.53;2.42;;;21.50;99.90;;;21.76;67.62;102666.25;5053575;28;20045;-60
2022/08/09 00:48:03;;;;;;;2.20;2.10;;;21.50;99.90;;;21.72;67.74;102674.44;5053228;28;20037;-59
2022/08/09 00:50:36;;;;;;;2.53;2.42;;;21.50;99.90;;;21.77;68.36;102681.50;5053112;28;20537;-59
2022/08/09 00:53:06;;;;;;;2.53;2.42;;;21.40;99.90;;;21.71;68.43;102678.94;5052187;28;20449;-59
2022/08/09 00:55:41;;;;;;;2.75;2.65;;;21.40;99.90;;;21.75;68.47;102686.03;5053454;28;20473;-60
2022/08/09 00:58:30;;;;;;;4.95;3.78;;;21.40;99.90;;;21.77;68.40;102684.19;5053133;28;20041;-60
2022/08/09 01:00:59;;;;;;;2.60;2.50;;;21.40;99.90;;;21.65;68.51;102678.16;5052920;28;20033;-59
2022/08/09 01:03:42;;;;;;;2.47;2.38;;;21.40;99.90;;;21.68;68.86;102679.00;5052853;28;20037;-59
2022/08/09 01:06:28;;;;;;;2.30;2.20;;;21.40;99.90;;;21.66;69.01;102680.81;5052868;28;20076;-59
2022/08/09 01:09:26;;;;;;;2.22;2.13;;;21.30;99.90;;;21.65;69.12;102687.16;5052921;28;20065;-59
2022/08/09 01:12:21;;;;;;;2.40;2.30;;;21.30;99.90;;;21.64;69.28;102687.19;5053444;28;20053;-59
2022/08/09 01:14:56;;;;;;;2.72;2.63;;;21.30;99.90;;;21.61;69.49;102684.53;5053646;28;20076;-59
2022/08/09 01:17:33;;;;;;;2.80;2.70;;;21.20;99.90;;;21.18;69.28;102617.22;5053631;28;20079;-59
2022/08/09 01:20:07;;;;;;;2.17;2.08;;;21.20;99.90;;;21.40;69.48;102658.94;5053450;28;20045;-59
2022/08/09 01:23:08;;;;;;;2.65;2.55;;;21.20;99.90;;;21.53;69.76;102677.53;5052742;28;20051;-59
2022/08/09 01:26:14;;;;;;;2.67;2.58;;;21.20;99.90;;;21.51;70.11;102687.44;5052776;28;20556;-59
2022/08/09 01:28:48;;;;;;;2.72;2.63;;;21.20;99.90;;;21.40;69.94;102667.03;5068594;28;20557;-59
2022/08/09 01:31:22;;;;;;;2.80;2.70;;;21.20;99.90;;;21.51;69.86;102702.69;5052751;28;20045;-59
2022/08/09 01:34:15;;;;;;;2.70;2.60;;;21.20;99.90;;;21.51;70.01;102681.16;5053056;28;20123;-60
2022/08/09 01:36:45;;;;;;;2.67;2.58;;;21.20;99.90;;;21.37;70.35;102673.34;5052788;28;20048;-59
2022/08/09 01:39:17;;;;;;;2.70;2.60;;;21.10;99.90;;;21.53;70.11;102684.72;5053050;28;20494;-60
2022/08/09 01:41:51;;;;;;;2.58;2.47;;;21.10;99.90;;;21.48;70.32;102681.22;5052709;28;20544;-60
2022/08/09 01:44:30;;;;;;;2.60;2.50;;;21.10;99.90;;;21.49;70.33;102683.00;5052527;28;20137;-60
2022/08/09 01:47:01;;;;;;;2.30;2.20;;;21.10;99.90;;;21.50;70.47;102682.94;5053205;28;20037;-59
2022/08/09 01:49:31;;;;;;;2.40;2.30;;;21.10;99.90;;;21.42;70.49;102684.94;5053217;28;20041;-60
2022/08/09 01:52:12;;;;;;;2.42;2.33;;;21.10;99.90;;;21.43;70.59;102689.41;5068397;28;20069;-59
2022/08/09 01:54:49;;;;;;;2.78;2.67;;;21.10;99.90;;;21.39;70.95;102684.97;5053160;28;20103;-60
2022/08/09 01:57:20;;;;;;;2.45;2.35;;;21.10;99.90;;;21.34;71.05;102694.06;5052563;28;20052;-59
2022/08/09 01:59:54;;;;;;;2.85;2.75;;;21.00;99.90;;;21.35;71.31;102685.09;5053074;28;20087;-59
2022/08/09 02:02:30;;;;;;;2.50;2.40;;;21.00;99.90;;;21.30;71.22;102692.38;5052496;28;20041;-60
2022/08/09 02:05:05;;;;;;;2.47;2.38;;;21.00;99.90;;;21.21;71.44;102692.56;5052781;28;20086;-59
2022/08/09 02:07:51;;;;;;;2.20;2.10;;;20.90;99.90;;;20.93;71.66;102643.69;5052988;28;20368;-60
2022/08/09 02:10:43;;;;;;;2.22;2.13;;;20.80;99.90;;;21.34;71.51;102689.59;5052445;28;20049;-59
2022/08/09 02:13:22;;;;;;;2.70;2.60;;;21.00;99.90;;;21.39;71.28;102694.84;5052665;28;20060;-60
2022/08/09 02:16:10;;;;;;;2.53;2.42;;;21.00;99.90;;;21.30;71.25;102692.38;5054033;28;20402;-59
2022/08/09 02:18:41;;;;;;;2.50;2.40;;;21.00;99.90;;;21.29;71.58;102695.97;5056623;28;20059;-59
2022/08/09 02:21:20;;;;;;;2.65;2.55;;;20.90;99.90;;;21.27;71.44;102687.06;5056067;28;20048;-59
2022/08/09 02:23:54;;;;;;;2.20;2.10;;;20.90;99.90;;;21.24;71.63;102679.00;5055873;28;20043;-59
2022/08/09 02:26:26;;;;;;;2.67;2.58;;;20.90;99.90;;;21.20;71.82;102680.88;5056202;28;20369;-59
2022/08/09 02:28:59;;;;;;;2.67;2.58;;;20.90;99.90;;;21.20;71.87;102688.06;5055875;28;20045;-59
2022/08/09 02:31:33;;;;;;;2.30;2.20;;;20.80;99.90;;;21.07;72.02;102686.53;5056421;28;20128;-59
2022/08/09 02:34:12;;;;;;;2.30;2.20;;;20.80;99.90;;;21.07;72.19;102678.44;5056306;28;20055;-60
2022/08/09 02:37:03;;;;;;;2.50;2.40;;;20.70;99.90;;;20.63;72.47;102601.22;5056036;28;20037;-59
2022/08/09 02:39:38;;;;;;;2.55;2.45;;;20.70;99.90;;;21.08;72.24;102669.47;5055682;28;20048;-59
2022/08/09 02:42:19;;;;;;;2.20;2.10;;;20.70;99.90;;;21.01;72.25;102679.47;5055864;28;20041;-59
2022/08/09 02:44:59;;;;;;;2.40;2.30;;;20.70;99.90;;;21.01;72.59;102683.94;5056148;28;20064;-59
2022/08/09 02:47:31;;;;;;;2.65;2.55;;;20.70;99.90;;;21.07;72.57;102675.75;5055806;28;20079;-59
2022/08/09 02:50:17;;;;;;;2.38;2.28;;;20.70;99.90;;;21.00;72.75;102668.69;5055819;28;20111;-59
2022/08/09 02:52:50;;;;;;;2.20;2.10;;;20.60;99.90;;;20.96;72.98;102673.25;5055482;28;20053;-59
2022/08/09 02:55:24;;;;;;;2.60;2.50;;;20.60;99.90;;;20.95;72.92;102667.88;5055940;28;20055;-59
2022/08/09 02:58:14;;;;;;;2.47;2.38;;;20.60;99.90;;;20.97;72.90;102664.25;5055330;28;20041;-60
2022/08/09 03:01:04;;;;;;;2.25;2.15;;;20.60;99.90;;;20.96;72.63;102659.81;5055586;28;20060;-59
2022/08/09 03:03:36;;;;;;;2.50;2.40;;;20.60;99.90;;;21.04;72.58;102665.94;5055393;28;20558;-59
2022/08/09 03:06:25;;;;;;;2.47;2.38;;;20.60;99.90;;;21.00;72.62;102660.63;5055135;28;20128;-59
2022/08/09 03:08:56;;;;;;;2.63;2.53;;;20.60;99.90;;;20.94;72.89;102658.03;5054111;28;20041;-59
2022/08/09 03:11:26;;;;;;;2.38;2.28;;;20.60;99.90;;;20.79;72.71;102634.13;5055616;28;20045;-59
2022/08/09 03:14:16;;;;;;;2.78;2.67;;;20.60;99.90;;;20.97;72.77;102663.34;5055049;28;20041;-59
2022/08/09 03:16:46;;;;;;;2.50;2.40;;;20.60;99.90;;;20.95;72.97;102660.69;5054888;28;20094;-59
2022/08/09 03:19:19;;;;;;;2.17;2.08;;;20.60;99.90;;;20.81;73.03;102645.75;5054915;28;20044;-59
2022/08/09 03:22:09;;;;;;;2.80;2.70;;;20.60;99.90;;;20.91;72.94;102660.78;5054772;28;20163;-60
2022/08/09 03:24:58;;;;;;;2.38;2.28;;;20.50;99.90;;;20.89;72.94;102662.59;5054776;28;20045;-59
2022/08/09 03:27:50;;;;;;;2.10;2.00;;;20.50;99.90;;;20.85;72.84;102663.59;5053041;28;20380;-59
2022/08/09 03:30:19;;;;;;;2.88;2.78;;;20.50;99.90;;;20.80;73.13;102662.78;5054726;28;20409;-60
2022/08/09 03:33:04;;;;;;;2.72;2.63;;;20.50;99.90;;;20.77;73.16;102668.22;5054673;28;20048;-59
2022/08/09 03:35:48;;;;;;;2.90;2.80;;;20.40;99.90;;;20.76;73.48;102666.44;5054903;28;20049;-59
2022/08/09 03:38:38;;;;;;;2.38;2.28;;;20.40;99.90;;;20.78;73.30;102664.59;5055118;28;20094;-59
2022/08/09 03:41:11;;;;;;;2.50;2.40;;;20.40;99.90;;;20.73;73.37;102679.97;5053497;28;20056;-59
2022/08/09 03:43:45;;;;;;;2.42;2.33;;;20.40;99.90;;;20.61;73.37;102657.72;5054522;28;20367;-59
2022/08/09 03:46:34;;;;;;;2.40;2.30;;;20.40;99.90;;;20.72;73.40;102670.09;5054739;28;20425;-59
2022/08/09 03:49:05;;;;;;;2.60;2.50;;;20.40;99.90;;;20.72;73.49;102670.09;5054290;28;20037;-60
2022/08/09 03:51:42;;;;;;;2.20;2.10;;;20.40;99.90;;;20.56;73.67;102650.63;5054490;28;20136;-59
2022/08/09 03:54:30;;;;;;;2.63;2.53;;;20.40;99.90;;;20.60;73.80;102655.94;5054259;28;20063;-59
2022/08/09 03:57:02;;;;;;;2.42;2.33;;;20.40;99.90;;;20.80;73.54;102684.31;5054185;28;20548;-59
2022/08/09 03:59:46;;;;;;;2.67;2.58;;;20.40;99.90;;;20.77;73.79;102689.75;5054120;28;20048;-59
2022/08/09 04:02:25;;;;;;;2.63;2.53;;;20.40;99.90;;;20.64;73.85;102698.03;5054075;28;20045;-59
2022/08/09 04:04:57;;;;;;;2.40;2.30;;;20.40;99.90;;;20.69;73.98;102692.56;5054064;28;20548;-60
2022/08/09 04:07:30;;;;;;;2.40;2.30;;;20.30;99.90;;;20.50;74.33;102673.16;5054244;28;20049;-61
2022/08/09 04:10:21;;;;;;;2.60;2.50;;;20.30;99.90;;;20.65;74.33;102691.72;5053894;28;20048;-60
2022/08/09 04:12:59;;;;;;;2.53;2.42;;;20.30;99.90;;;20.70;74.47;102702.41;5053839;28;20053;-60
2022/08/09 04:15:32;;;;;;;2.50;2.40;;;20.30;99.90;;;20.69;74.42;102696.13;5053812;28;20406;-60
2022/08/09 04:18:20;;;;;;;2.47;2.38;;;20.30;99.90;;;20.65;74.60;102696.22;5053998;28;20052;-60
2022/08/09 04:20:52;;;;;;;2.63;2.53;;;20.30;99.90;;;20.61;74.79;102702.56;5053719;28;20055;-61
2022/08/09 04:23:22;;;;;;;2.55;2.45;;;20.30;99.90;;;20.65;74.70;102709.69;5053793;28;20368;-60
2022/08/09 04:25:54;;;;;;;2.47;2.38;;;20.40;99.90;;;20.56;74.84;102708.00;5053679;28;20072;-60
2022/08/09 04:28:24;;;;;;;2.63;2.53;;;20.30;99.90;;;20.59;75.20;102717.84;5053590;28;20094;-60
2022/08/09 04:31:05;;;;;;;2.72;2.63;;;20.30;99.90;;;20.62;75.06;102718.69;5053889;28;20124;-60
2022/08/09 04:33:39;;;;;;;2.58;2.47;;;20.30;99.90;;;20.62;75.03;102724.06;5053892;28;20068;-59
2022/08/09 04:36:26;;;;;;;2.67;2.58;;;20.30;99.90;;;20.61;75.23;102735.72;5053508;28;20095;-60
2022/08/09 04:38:58;;;;;;;2.45;2.35;;;20.30;99.90;;;20.66;75.18;102728.47;5052847;28;20545;-60
2022/08/09 04:41:28;;;;;;;2.72;2.63;;;20.30;99.90;;;20.67;74.96;102711.41;5053759;28;20106;-59
2022/08/09 04:44:02;;;;;;;2.30;2.20;;;20.40;99.90;;;20.66;74.86;102724.88;5053445;28;20053;-59
2022/08/09 04:46:37;;;;;;;2.50;2.40;;;20.40;99.90;;;20.74;74.99;102728.34;5053826;28;20045;-60
2022/08/09 04:49:31;;;;;;;2.30;2.20;;;20.40;99.90;;;20.81;74.85;102729.16;5053273;28;20065;-59
2022/08/09 04:52:20;;;;;;;2.65;2.55;;;20.40;99.90;;;20.78;74.67;102729.19;5053744;28;20545;-60
2022/08/09 04:54:57;;;;;;;2.45;2.35;;;20.40;99.90;;;20.47;74.57;102670.53;5053406;28;20120;-59
2022/08/09 04:57:26;;;;;;;2.58;2.47;;;20.40;99.90;;;20.80;74.56;102725.56;5053405;28;20044;-59
2022/08/09 05:00:15;;;;;;;2.40;2.30;;;20.50;99.90;;;20.80;74.71;102722.88;5053326;28;20434;-59
2022/08/09 05:02:44;;;;;;;2.80;2.70;;;20.50;99.90;;;20.92;74.39;102727.16;5053263;28;20040;-59
2022/08/09 05:05:20;;;;;;;2.22;2.13;;;20.60;99.90;;;20.95;74.14;102729.78;5068600;28;20495;-60
2022/08/09 05:08:08;;;;;;;3.13;3.03;;;20.60;99.90;;;20.94;74.14;102706.47;5053010;28;20072;-59
2022/08/09 05:10:43;;;;;;;2.45;2.35;;;20.70;99.90;;;20.38;73.71;102611.50;5053487;28;20045;-60
2022/08/09 05:13:11;;;;;;;2.47;2.38;;;20.70;99.90;;;21.18;73.62;102725.78;5053240;28;20045;-60
2022/08/09 05:15:42;;;;;;;2.65;2.55;;;20.80;99.90;;;21.17;73.22;102717.75;5052861;28;20045;-59
2022/08/09 05:18:19;;;;;;;2.80;2.70;;;20.90;99.90;;;21.29;72.80;102731.84;5053431;28;20041;-59
2022/08/09 05:21:07;;;;;;;2.20;2.10;;;20.90;99.90;;;21.24;73.02;102723.00;5053376;28;20048;-60
2022/08/09 05:23:50;;;;;;;2.53;2.42;;;21.00;99.90;;;21.33;72.74;102727.31;5053082;28;20073;-59
2022/08/09 05:26:29;;;;;;;2.10;2.00;;;21.00;99.90;;;21.31;72.67;102731.84;5053060;28;20060;-59
2022/08/09 05:29:18;;;;;;;2.33;2.22;;;21.00;99.90;;;21.44;72.66;102733.38;5052843;28;20044;-60
2022/08/09 05:31:51;;;;;;;2.50;2.40;;;21.10;99.90;;;21.38;72.53;102715.53;5052687;28;20052;-60
2022/08/09 05:34:26;;;;;;;2.63;2.53;;;21.20;99.90;;;21.52;71.98;102732.28;5052730;28;20049;-60
2022/08/09 05:37:00;;;;;;;2.40;2.30;;;21.20;99.90;;;21.59;72.12;102730.38;5052927;28;20053;-60
2022/08/09 05:39:34;;;;;;;2.42;2.33;;;21.30;99.90;;;21.68;71.78;102732.88;5053186;28;20041;-61
2022/08/09 05:42:13;;;;;;;2.70;2.60;;;21.40;99.90;;;21.77;71.17;102737.19;5053141;28;20072;-61
2022/08/09 05:44:50;;;;;;;2.83;2.72;;;21.40;99.90;;;21.86;71.09;102737.94;5052594;28;20060;-60
2022/08/09 05:47:20;;;;;;;2.70;2.60;;;21.50;99.90;;;21.92;70.96;102729.72;5052556;28;20106;-60
2022/08/09 05:49:50;;;;;;;2.72;2.63;;;21.60;99.90;;;22.11;70.35;102755.34;5053186;28;20052;-60
2022/08/09 05:52:40;;;;;;;2.65;2.55;;;21.80;99.90;;;22.18;70.08;102746.19;5056558;28;20585;-60
2022/08/09 05:55:10;;;;;;;2.90;2.80;;;21.90;99.90;;;22.41;69.39;102769.97;5056485;28;20052;-61
2022/08/09 05:57:50;;;;;;;2.33;2.22;;;22.10;99.90;;;22.55;69.10;102767.81;5056725;28;20075;-61
2022/08/09 06:00:25;;;;;;;2.35;2.25;;;22.20;99.90;;;22.31;68.10;102704.56;5056437;28;20120;-60
2022/08/09 06:02:56;;;;;;;2.42;2.33;;;22.40;99.90;;;22.66;67.41;102771.19;5056374;28;20128;-60
2022/08/09 06:05:25;;;;;;;2.45;2.35;;;22.40;99.90;;;22.88;67.33;102771.56;5056220;28;20510;-61
2022/08/09 06:08:14;;;;;;;2.33;2.22;;;22.60;99.90;;;23.08;66.89;102772.81;5056258;28;20072;-61
2022/08/09 06:10:53;;;;;;;2.90;2.80;;;22.80;99.90;;;23.16;65.78;102772.59;5056444;28;20037;-61
2022/08/09 06:13:24;;;;;;;2.42;2.33;;;22.90;99.90;;;23.13;65.67;102756.50;5055433;28;20048;-61
2022/08/09 06:15:55;;;;;;;2.50;2.40;;;23.00;99.90;;;23.39;65.63;102786.44;5056209;28;20045;-61
2022/08/09 06:18:24;;;;;;;2.50;2.40;;;23.10;99.90;;;23.56;65.42;102789.56;5056359;28;20033;-60
2022/08/09 06:20:55;;;;;;;2.50;2.40;;;23.20;99.90;;;23.70;64.91;102795.47;5056264;28;20128;-60
2022/08/09 06:23:26;;;;;;;2.60;2.50;;;23.40;99.90;;;23.40;64.29;102734.19;5056268;28;20094;-61
2022/08/09 06:26:15;;;;;;;2.50;2.40;;;23.50;99.90;;;23.60;63.23;102791.25;5056176;28;20048;-61
2022/08/09 06:28:50;;;;;;;1.92;1.83;;;23.50;99.90;;;23.95;63.49;102799.25;5056252;28;20060;-62
2022/08/09 06:31:31;;;;;;;2.25;2.15;;;23.60;99.90;;;23.99;63.07;102790.13;5056107;28;20380;-61
2022/08/09 06:34:07;;;;;;;2.00;1.90;;;23.70;99.90;;;24.03;62.03;102789.13;5056035;28;20123;-62
2022/08/09 06:36:37;;;;;;;2.47;2.38;;;23.70;99.90;;;24.09;61.77;102798.88;5055678;28;20474;-62
2022/08/09 06:39:12;;;;;;;2.20;2.10;;;23.70;99.90;;;24.10;61.60;102797.94;5055715;28;20048;-63
2022/08/09 06:41:41;;;;;;;;;;;23.80;99.90;;;24.26;61.38;102803.75;5056128;28;20045;-60
2022/08/09 06:44:33;;;;;;;2.40;2.30;;;23.90;99.90;;;24.16;61.48;102804.06;5055751;28;19925;-60
2022/08/09 06:47:02;;;;;;;2.20;2.10;;;23.90;99.90;;;24.33;61.62;102806.22;5055467;28;20041;-61
2022/08/09 06:49:30;;;;;;;2.40;2.30;;;23.90;99.90;;;24.31;61.13;102802.72;5055655;28;20127;-60
2022/08/09 06:52:19;;;;;;;2.58;2.47;;;24.00;99.90;;;24.46;60.53;102809.47;5055929;28;20067;-68
2022/08/09 06:54:52;;;;;;;2.38;2.28;;;24.10;99.90;;;24.47;60.40;102811.22;5055358;28;20075;-60
2022/08/09 06:57:21;;;;;;;2.35;2.25;;;24.10;99.90;;;24.47;60.37;102814.81;5055848;28;20132;-60
2022/08/09 07:00:13;;;;;;;2.10;2.00;;;24.20;99.90;;;24.60;60.04;102810.78;5055519;28;20056;-60
2022/08/09 07:03:01;;;;;;;2.05;1.95;;;24.30;99.90;;;24.71;59.23;102813.16;5054122;28;20047;-60
2022/08/09 07:05:33;;;;;;;2.03;1.92;;;24.40;99.90;;;24.77;58.32;102818.44;5055253;28;20088;-61
2022/08/09 07:08:21;;;;;;;2.30;2.20;;;24.50;99.90;;;24.75;58.39;102818.47;5055045;28;20132;-61
2022/08/09 07:10:52;;;;;;;2.42;2.33;;;24.50;99.90;;;24.68;57.91;102824.09;5055383;28;20056;-61
2022/08/09 07:13:20;;;;;;;2.40;2.30;;;24.40;99.90;;;24.76;57.99;102816.63;5055259;28;20472;-61
2022/08/09 07:15:58;;;;;;;2.30;2.20;;;24.50;99.90;;;24.82;57.84;102820.03;5055246;28;20363;-61
2022/08/09 07:18:46;;;;;;;2.13;2.03;;;24.60;99.90;;;24.78;58.45;102802.13;5054936;28;20124;-60
2022/08/09 07:21:17;;;;;;;;;;;24.70;99.90;;;25.00;57.57;102824.88;5055684;28;20045;-61
2022/08/09 07:23:47;;;;;;;2.20;2.10;;;24.70;99.90;;;25.06;56.61;102821.06;5054846;28;19927;-61
2022/08/09 07:26:26;;;;;;;2.08;1.98;;;24.80;99.90;;;25.14;55.88;102829.81;5054633;28;20051;-61
2022/08/09 07:28:54;;;;;;;2.15;2.05;;;24.80;99.90;;;25.00;56.35;102824.88;5054821;28;20033;-60
2022/08/09 07:31:42;;;;;;;2.17;2.08;;;24.70;99.90;;;25.04;56.20;102818.41;5054737;28;20490;-59
2022/08/09 07:34:15;;;;;;;2.40;2.30;;;24.80;99.90;;;25.10;56.83;102820.03;5054704;28;20041;-60
2022/08/09 07:36:48;;;;;;;2.20;2.10;;;24.80;99.90;;;25.22;56.76;102816.03;5054917;28;20095;-60
2022/08/09 07:39:17;;;;;;;2.30;2.20;;;24.90;99.90;;;25.31;56.70;102800.31;5054723;28;20467;-60
2022/08/09 07:42:06;;;;;;;2.10;2.00;;;25.00;99.90;;;25.33;56.13;102798.44;5054451;28;20036;-60
2022/08/09 07:44:34;;;;;;;2.78;2.67;;;25.00;99.90;;;25.31;55.34;102802.13;5069506;28;20053;-61
2022/08/09 07:47:22;;;;;;;2.17;2.08;;;25.00;99.90;;;25.09;56.66;102803.84;5054339;28;20032;-60
2022/08/09 07:49:51;;;;;;;2.13;2.03;;;24.80;99.90;;;25.17;56.75;102801.72;5054625;28;20136;-60
2022/08/09 07:52:37;;;;;;;2.08;1.98;;;24.80;99.90;;;25.36;56.69;102806.47;5054532;28;20626;-60
2022/08/09 07:55:06;;;;;;;2.33;2.22;;;25.00;99.90;;;25.45;55.98;102811.63;5054422;28;20040;-60
2022/08/09 07:57:38;;;;;;;2.30;2.20;;;25.10;99.90;;;25.14;54.82;102801.84;5054165;28;20124;-60
2022/08/09 08:00:16;;;;;;;2.25;2.15;;;25.00;99.90;;;24.83;55.71;102770.38;5054116;28;20056;-60
2022/08/09 08:03:06;;;;;;;2.78;2.53;;;24.80;99.90;;;24.59;55.38;102797.31;5053999;28;20063;-60
2022/08/09 08:05:36;;;;;;;2.20;2.10;;;24.50;99.90;;;24.69;56.57;102801.50;5053875;28;20045;-60
2022/08/09 08:08:23;;;;;;;2.00;1.90;;;24.40;99.90;;;24.81;56.76;102774.06;5054279;28;20045;-60
2022/08/09 08:11:11;;;;;;;2.22;2.13;;;24.60;99.90;;;25.22;56.67;102814.19;5053930;28;20406;-60
2022/08/09 08:13:59;;;;;;;1.77;1.73;;;24.80;99.90;;;25.30;55.75;102814.78;5053874;28;20045;-61
2022/08/09 08:16:28;;;;;;;2.20;2.10;;;25.00;99.90;;;25.45;55.21;102816.13;5054210;28;20047;-60
2022/08/09 08:19:00;;;;;;;2.33;2.22;;;25.10;99.90;;;25.48;54.50;102808.78;5054064;28;20124;-60
2022/08/09 08:21:31;;;;;;;2.05;1.95;;;25.30;99.90;;;25.45;54.37;102798.06;5053726;28;20076;-60
2022/08/09 08:23:59;;;;;;;2.00;1.90;;;25.30;99.90;;;25.06;55.24;102821.06;5052656;28;20057;-60
2022/08/09 08:26:43;;;;;;;2.10;2.00;;;25.00;99.90;;;25.38;54.66;102818.13;5053693;28;20099;-60
2022/08/09 08:29:24;;;;;;;2.00;1.90;;;25.10;99.90;;;25.70;54.91;102817.03;5054097;28;20075;-60
2022/08/09 08:31:55;;;;;;;2.22;2.13;;;25.40;99.90;;;25.20;54.55;102818.78;5053518;28;20056;-60
2022/08/09 08:34:34;;;;;;;2.28;2.17;;;25.10;99.90;;;25.53;55.15;102809.50;5053734;28;20045;-60
2022/08/09 08:37:04;;;;;;;2.30;2.20;;;25.20;99.90;;;25.85;53.97;102819.19;5053391;28;20061;-60
2022/08/09 08:39:32;;;;;;;2.00;1.90;;;25.50;99.90;;;25.89;52.86;102826.25;5053550;28;20453;-60
2022/08/09 08:42:12;;;;;;;2.00;1.90;;;25.60;99.90;;;25.48;52.78;102722.03;5053576;28;20045;-60
2022/08/09 08:44:42;;;;;;;1.80;1.80;;;25.80;99.90;;;26.09;52.04;102785.75;5053602;28;20061;-60
2022/08/09 08:47:15;;;;;;;2.22;2.13;;;26.00;99.90;;;26.32;50.60;102809.28;5053204;28;20041;-60
2022/08/09 08:49:45;;;;;;;2.08;1.98;;;26.10;99.90;;;26.38;49.43;102801.78;5053245;28;20045;-60
2022/08/09 08:52:19;;;;;;;2.15;2.05;;;26.30;99.90;;;26.62;49.35;102818.91;5053247;28;20041;-61
2022/08/09 08:55:08;;;;;;;2.10;2.00;;;26.40;99.90;;;26.66;49.11;102812.41;5053192;28;20045;-61
2022/08/09 08:57:37;;;;;;;1.80;1.80;;;26.50;99.90;;;26.56;49.42;102808.28;5053120;28;20055;-60
2022/08/09 09:00:09;;;;;;;1.70;1.70;;;26.40;99.90;;;26.86;49.13;102828.84;5053298;28;20048;-60
2022/08/09 09:02:51;;;;;;;2.10;2.00;;;26.60;99.90;;;26.78;47.78;102836.41;5053328;28;20445;-60
2022/08/09 09:05:25;;;;;;;1.90;1.80;;;26.60;99.90;;;26.53;47.40;102771.31;5051965;28;20136;-60
2022/08/09 09:08:15;;;;;;;1.80;1.80;;;26.60;99.90;;;26.98;47.53;102832.88;5053009;28;20045;-61
2022/08/09 09:11:02;;;;;;;2.15;2.05;;;26.80;99.90;;;26.46;49.09;102834.06;5053282;28;20052;-60
2022/08/09 09:13:37;;;;;;;1.95;1.90;;;26.40;99.90;;;26.35;48.20;102730.44;5053169;28;20053;-60
2022/08/09 09:16:26;;;;;;;1.67;1.67;;;26.60;99.90;;;27.05;47.24;102832.56;5068602;28;20144;-61
2022/08/09 09:19:00;;;;;;;2.00;1.90;;;26.80;99.90;;;27.19;47.66;102840.13;5051779;28;20041;-61
2022/08/09 09:22:08;;;;;;;1.70;1.70;;;26.90;99.90;;;27.31;46.26;102810.56;5053330;28;20131;-61
2022/08/09 09:24:42;;;;;;;1.80;1.80;;;27.20;99.90;;;27.55;46.27;102844.91;5052861;28;20044;-61
2022/08/09 09:27:14;;;;;;;1.60;1.60;;;27.30;99.90;;;27.45;45.29;102821.78;5056224;28;20053;-60
2022/08/09 09:30:12;;;;;;;1.73;1.73;;;27.40;99.90;;;27.82;45.87;102839.19;5056910;28;20053;-61
2022/08/09 09:33:09;;;;;;;1.73;1.73;;;27.50;99.90;;;26.76;45.22;102833.75;5056873;28;20044;-61
2022/08/09 09:35:55;;;;;;;1.67;1.67;;;26.80;99.90;;;26.46;47.15;102834.06;5056973;28;20057;-61
2022/08/09 09:38:44;;;;;;;2.03;1.92;;;26.20;99.90;;;25.56;49.62;102831.09;5057052;28;20037;-60
2022/08/09 09:41:29;;;;;;;2.05;1.95;;;25.50;99.90;;;26.22;48.55;102835.91;5057245;28;20040;-61
2022/08/09 09:44:07;;;;;;;2.08;1.98;;;25.70;99.90;;;26.23;50.28;102831.34;5056682;28;20060;-61
2022/08/09 09:46:43;;;;;;;1.95;1.85;;;25.70;99.90;;;26.72;48.42;102832.13;5056773;28;20574;-60
2022/08/09 09:49:24;;;;;;;1.75;1.75;;;26.30;99.90;;;26.38;47.89;102831.66;5056835;28;20060;-60
2022/08/09 09:52:12;;;;;;;2.05;1.95;;;26.10;99.90;;;26.89;47.19;102834.13;5056498;28;20534;-60
2022/08/09 09:55:05;;;;;;;1.67;1.67;;;26.50;99.90;;;27.03;46.45;102841.72;5056492;28;20469;-61
2022/08/09 09:57:58;;;;;;;;;;;26.70;99.90;;;27.12;46.18;102836.78;5056841;28;20060;-61
2022/08/09 10:00:32;;;;;;;1.73;1.73;;;26.90;99.90;;;27.32;46.14;102831.41;5056288;28;19924;-60
2022/08/09 10:03:02;;;;;;;1.80;1.75;;;27.10;99.90;;;27.52;44.98;102833.28;5056187;28;20540;-61
2022/08/09 10:05:59;;;;;;;2.13;2.03;;;27.30;99.90;;;27.74;45.95;102831.38;5056444;28;20045;-61
2022/08/09 10:08:32;;;;;;;1.63;1.63;;;27.50;99.90;;;28.04;45.88;102835.47;5056149;28;20115;-60
2022/08/09 10:11:24;;;;;;;1.60;1.60;;;27.80;99.90;;;27.94;44.56;102822.31;5071529;28;20041;-61
2022/08/09 10:14:23;;;;;;;1.70;1.70;;;27.80;99.90;;;28.30;45.23;102826.09;5056077;28;20084;-61
2022/08/09 10:17:10;;;;;;;1.60;1.60;;;28.00;99.90;;;28.58;43.97;102826.56;5055947;28;20494;-60
2022/08/09 10:19:58;;;;;;;1.42;1.42;;;28.30;99.90;;;28.71;44.11;102808.66;5055910;28;20408;-60
2022/08/09 10:22:32;;;;;;;1.50;1.50;;;28.50;99.90;;;28.63;42.92;102820.91;5056088;28;20398;-60
2022/08/09 10:25:06;;;;;;;1.30;1.30;;;28.40;99.90;;;28.89;43.20;102815.94;5054934;28;20491;-61
2022/08/09 10:27:44;;;;;;;1.63;1.63;;;28.70;99.90;;;29.08;42.67;102815.88;5056101;28;20055;-61
2022/08/09 10:30:26;;;;;;;1.60;1.60;;;28.90;99.90;;;28.17;40.39;102737.75;5056194;28;20037;-60
2022/08/09 10:33:15;;;;;;;1.77;1.77;;;28.60;99.90;;;27.27;42.49;102803.53;5055953;28;20483;-60
2022/08/09 10:36:05;;;;;;;1.85;1.83;;;27.50;99.90;;;27.20;42.09;102806.53;5055630;28;20498;-61
2022/08/09 10:38:42;;;;;;;1.63;1.63;;;27.00;99.90;;;27.45;43.11;102805.47;5055583;28;20041;-61
2022/08/09 10:41:27;;;;;;;1.80;1.75;;;27.10;99.90;;;27.19;42.72;102804.78;5055644;28;20124;-61
2022/08/09 10:43:58;;;;;;;2.00;1.90;;;27.00;99.90;;;26.33;45.86;102803.78;5055395;28;20056;-60
2022/08/09 10:46:58;;;;;;;4.55;2.45;;;26.10;99.90;;;26.74;43.05;102807.59;5054393;28;20487;-61
2022/08/09 10:49:37;;;;;;;2.83;2.63;;;26.50;99.90;;;26.02;45.24;102811.28;5055674;28;20045;-60
2022/08/09 10:52:41;;;;;;;2.30;2.20;;;25.70;99.90;;;24.96;47.27;102797.94;5055486;28;20482;-60
2022/08/09 10:55:23;;;;;;;1.88;1.80;;;24.80;99.90;;;25.70;46.32;102796.25;5055716;28;20441;-60
2022/08/09 10:57:53;;;;;;;2.40;2.30;;;25.20;99.90;;;25.44;46.25;102804.41;5070842;28;20053;-60
2022/08/09 11:00:38;;;;;;;2.40;2.30;;;25.10;99.90;;;24.88;47.20;102791.88;5055900;28;20045;-60